Alum Bridge, WV

7:49 AM EDT on July 31, 2014 (GMT -0400)
Buckhannon (KW22) Elev 1634 ft | 39.00 °N, 80.27 °W | Change Station

Current weather conditions updated 57 days ago

Fog
Fog
57 °F
Feels Like 57 °F
N
1
Wind Variable Wind from SSE
Gusts mph

Today is forecast to be Much Warmer than yesterday.

Today
High -- | Low -- °F
--% Chance of Precip.
Yesterday
High -- | Low -- °F
Precip. -- in
6:22 AM 8:35 PM
Waxing Crescent, 18% visible
Pressure 30.09 in
Visibility 9.0 miles
Clouds Overcast 800 ft
Dew Point 57 °F
Humidity 98%
Rainfall 0.47 in
Snow Depth Not available.
UV 4 out of 12
Pollen 5.90 out of 12
Air Quality Not available.
Flu Activity Not available.
METAR KW22 031630Z AUTO 21007KT 9SM OVC008 21/21 A3009 RMK AO2

More Conditions Fewer Conditions

Pressure 30.09 in
Visibility 9.0 miles
Clouds Overcast 800 ft
Dew Point 57 °F
Humidity 98%
Rainfall 0.47 in
Snow Depth Not available.
UV 4 out of 12
Pollen 5.90 out of 12
Air Quality Not available.
Flu Activity Not available.
METAR KW22 031630Z AUTO 21007KT 9SM OVC008 21/21 A3009 RMK AO2

More Conditions Fewer Conditions

10-Day Weather Forecast

Almanac

Astronomy

Jul. 31, 2014 Rise Set
Actual Time 6:22 AM EDT 8:35 PM EDT
Civil Twilight 5:52 AM EDT 9:05 PM EDT
Nautical Twilight 5:15 AM EDT 9:41 PM EDT
Astronomical Twilight 4:35 AM EDT 10:21 PM EDT
Moon 10:45 AM EDT 10:50 PM EDT
Length of Visible Light 15h 12m
Length of Day
14h 12m
Tomorrow will be 1m 54s shorter.
Waxing Crescent, 18% of the Moon is Illuminated
Today
Waxing Crescent
Aug 3
First Quarter
Aug 10
Full
Aug 17
Last Quarter
Aug 25
New

Today's Extremes

State Highs State Lows

Community

WunderPhotos

Upload Photos

1,739,296 photos uploaded!

WunderBlogs® & News

By Dr. Jeff Masters
Director of Meteorology, Weather Underground
By Kari Strenfel
Meteorologist, Weather Underground
By Christopher C. Burt
Weather Historian, Weather Underground
July 31, 2014
July 31, 2014
July 31, 2014

Nearby

Snow Depth

Station Depth Elevation
No new snow has been reported.

Earthquake Activity

City Distance Mag. Time & Date
No recent earthquake activity has been reported nearby.
Minimum magnitude displayed is 2.5.

Coastal Water Temperatures

Place Temperature
No Stations Reporting

Nearby Weather Stations

Station Location Temp. Dew Point Humidity Wind Precip. Elev Updated Type
Quirky Towers, Vadis, Alum Bridge, WV 57.9 °F 58 °F 99% NE  at  0.0 mph 0.00 in / hr 837 ft 7:49 AM EDT Normal
W8PY @ Harmony, West Union, WV 56.0 °F 55 °F 97% NNW  at  0.0 mph 0.00 in / hr 852 ft 7:37 AM EDT Normal
Brooklyn Point, Glenville, WV 61.0 °F 60 °F 98% South  at  0.0 mph - / hr 732 ft 6:46 AM CDT Normal
APRSWXNET Harrisville WV US, Hazelgreen, WV 55 °F 55 °F 100% North  at  0 mph 0.00 in / hr 806 ft 6:38 AM EDT MADIS
Marshville, Salem, WV 54.9 °F 52 °F 89% NE  at  0.0 mph - / hr 1122 ft 7:37 AM EDT Normal

Show More Stations Show Fewer Stations